Edmond, OK

8:17 PM CDT on September 19, 2014 (GMT -0500)
Cumberland Crossing | Change Station
CLOSE
Current Station
Personal Weather Station
Location: Edmond, OK
Elevation: 1079 ft
Nearby Weather Stations
4.0 Earthquake: Medford, Oklahoma (23 hours ago)  

Elev 1079 ft 35.71 °N, 97.55 °W | Updated 5 seconds ago

Clear
Clear
78.8 °F
Feels Like 81 °F
N
2.0
Wind Variable Wind from SE
Gusts 5.0 mph

Today
High -- | Low -- °F
--% Chance of Precip.
Yesterday
High -- | Low -- °F
Precip. -- in
7:15 AM 7:31 PM
Waning Crescent, 15% visible
Pressure 29.91 in
Visibility 10.0 miles
Clouds Few 4300 ft
Heat Index 81 °F
Dew Point 69 °F
Humidity 72%
Rainfall 0.00 in
Snow Depth Not available.
UV 0.0 out of 12
Pollen 10.40 out of 12
Ozone Good
PM2.5 Good
Flu Activity Not available.
METAR KPWA 200053Z 14009KT 10SM FEW043 27/18 A2995 RMK AO2 SLP126 T02720183

More Conditions Fewer Conditions

Pressure 29.91 in
Visibility 10.0 miles
Clouds Few 4300 ft
Heat Index 81 °F
Dew Point 69 °F
Humidity 72%
Rainfall 0.00 in
Snow Depth Not available.
UV 0.0 out of 12
Pollen 10.40 out of 12
Ozone Good
PM2.5 Good
Flu Activity Not available.
METAR KPWA 200053Z 14009KT 10SM FEW043 27/18 A2995 RMK AO2 SLP126 T02720183

More Conditions Fewer Conditions

10-Day Weather Forecast

Almanac

Astronomy

Sep. 19, 2014 Rise Set
Actual Time 7:15 AM CDT 7:31 PM CDT
Civil Twilight 6:50 AM CDT 7:56 PM CDT
Nautical Twilight 6:20 AM CDT 8:26 PM CDT
Astronomical Twilight 5:50 AM CDT 8:57 PM CDT
Moon 3:09 AM CDT (9/19) 4:55 PM CDT (9/19)
Length of Visible Light 13h 06m
Length of Day
12h 15m
Tomorrow will be 2m 14s shorter.
Waning Crescent, 15% of the Moon is Illuminated
Today
Waning Crescent
Sep 24
New
Oct 1
First Quarter
Oct 8
Full
Oct 15
Last Quarter

Today's Extremes

State Highs State Lows

Community

WunderPhotos

Upload Photos

1,754,755 photos uploaded!

WunderBlogs® & News

Nearby

Air Quality

  Air Quality AQ Index Pollutant
Yesterday Good
OZONE
Yesterday Good
PM2.5
Current Good
PM2.5
Current Good
OZONE
Friday Moderate
PM2.5
Friday Good
OZONE
Saturday Moderate
PM2.5
Saturday Good
OZONE
Sunday Good
PM2.5
Sunday Good
OZONE
Monday Good
OZONE
Monday Good
PM2.5
Tuesday Good
OZONE
Tuesday Good
PM2.5
Wednesday Good
OZONE
Wednesday Good
PM2.5

Snow Depth

Station Depth Elevation
No new snow has been reported.

Earthquake Activity

City Distance Mag. Time & Date
Luther, Oklahoma 26 miles 2.7 4:47 PM CDT
2014-09-19
Guthrie, Oklahoma 11 miles 3.9 12:23 PM CDT
2014-09-19
Jones, Oklahoma 18 miles 2.8 1:13 AM CDT
2014-09-19
Perry, Oklahoma 37 miles 3.3 12:08 AM CDT
2014-09-19
Minimum magnitude displayed is 2.5.

Coastal Water Temperatures

Place Temperature
No Stations Reporting

Nearby Weather Stations